Paint Rock, Alabama
Current Conditions -  °F | °C
As of 2:15 AM on Monday 24 Nov 2014 (Local Time) from K4A6 Reporting Station
Broken Clouds Broken Clouds  
Wind Chill: 61°   Ceiling: 2600
Heat Index: 61°   Visibility: 10mi
Dew Point: 55°   Wind: 3mph
Humidity: 82%   Direction: 230°SW
Pressure: 29.65"   Gusts: 17mph
Location:  34.66°N, 86.33°W
Report Text: K4A6 240815Z AUTO 23003G15KT 10SM BKN026 BKN033 16/13 A2965 RMK AO2
Loading
Personal Weather Stations






























Interactive Weather Map New forecast layout! Learn more

10-Day Weather Forecast

Advertisements
Track Severe Weather on mobile